Time;durP1;ratioP1;P1;durP2;ratioP2;P2;SDS_P1;SDS_P2;PMS_P1;PMS_P2;Temp;Humidity;BMP_temperature;BMP_pressure;BME280_temperature;BME280_humidity;BME280_pressure;Samples;Min_cycle;Max_cycle;Signal;HPM_P1;HPM_P2
2021/03/09 00:00:22;;;;;;;20.42;14.40;;;;;;;;;;4988323;28;20045;-61
2021/03/09 00:02:47;;;;;;;27.98;17.35;;;;;;;;;;4990103;28;20375;-61
2021/03/09 00:05:13;;;;;;;23.40;16.42;;;;;;;;;;4988721;28;20084;-61
2021/03/09 00:07:40;;;;;;;22.55;17.45;;;;;;;;;;4988679;28;20034;-61
2021/03/09 00:10:06;;;;;;;24.17;16.65;;;;;;;;;;4990029;28;20537;-60
2021/03/09 00:12:32;;;;;;;23.38;15.68;;;;;;;;;;4987768;28;20365;-61
2021/03/09 00:14:57;;;;;;;23.05;15.52;;;;;;;;;;4989552;28;20041;-61
2021/03/09 00:17:23;;;;;;;20.90;14.73;;;;;;;;;;4988578;28;20466;-60
2021/03/09 00:19:48;;;;;;;22.10;13.80;;;;;;;;;;4989905;28;20030;-60
2021/03/09 00:22:14;;;;;;;21.42;15.30;;;;;;;;;;4986570;28;20042;-61
2021/03/09 00:24:39;;;;;;;25.02;14.63;;;;;;;;;;4987762;28;20038;-60
2021/03/09 00:27:09;;;;;;;19.42;13.95;;;;;;;;;;4989916;28;20030;-61
2021/03/09 00:29:34;;;;;;;23.23;14.13;;;;;;;;;;4989255;28;20023;-61
2021/03/09 00:32:00;;;;;;;20.77;14.95;;;;;;;;;;4984381;28;20463;-61
2021/03/09 00:34:25;;;;;;;20.70;13.93;;;;;;;;;;4987968;28;20049;-60
2021/03/09 00:36:50;;;;;;;21.10;15.75;;;;;;;;;;4989707;28;20026;-61
2021/03/09 00:39:16;;;;;;;26.73;14.82;;;;;;;;;;4988653;28;20454;-61
2021/03/09 00:41:41;;;;;;;23.50;14.40;;;;;;;;;;4987860;28;20610;-60
2021/03/09 00:44:06;;;;;;;20.80;14.77;;;;;;;;;;4989675;28;20019;-60
2021/03/09 00:46:32;;;;;;;18.35;14.10;;;;;;;;;;4988401;28;20042;-60
2021/03/09 00:48:57;;;;;;;22.38;13.73;;;;;;;;;;4989194;28;20120;-61
2021/03/09 00:51:23;;;;;;;25.80;16.27;;;;;;;;;;4987701;28;20479;-61
2021/03/09 00:53:48;;;;;;;21.25;14.32;;;;;;;;;;4989361;28;20022;-61
2021/03/09 00:56:14;;;;;;;18.50;14.48;;;;;;;;;;4989081;28;20040;-61
2021/03/09 00:58:39;;;;;;;20.58;15.48;;;;;;;;;;4986037;28;20490;-61
2021/03/09 01:01:04;;;;;;;20.50;14.75;;;;;;;;;;4989286;28;20113;-60
2021/03/09 01:03:30;;;;;;;24.52;15.32;;;;;;;;;;4988035;28;20348;-61
2021/03/09 01:05:55;;;;;;;21.48;15.68;;;;;;;;;;4989074;28;20098;-61
2021/03/09 01:08:21;;;;;;;22.70;15.48;;;;;;;;;;4986192;28;20519;-61
2021/03/09 01:10:47;;;;;;;21.60;15.90;;;;;;;;;;4988778;28;20495;-61
2021/03/09 01:13:12;;;;;;;25.70;13.77;;;;;;;;;;4987420;28;20050;-61
2021/03/09 01:15:38;;;;;;;19.08;13.90;;;;;;;;;;4985780;28;20882;-61
2021/03/09 01:18:04;;;;;;;21.02;14.32;;;;;;;;;;4989180;28;20034;-61
2021/03/09 01:20:29;;;;;;;18.02;14.00;;;;;;;;;;4987999;28;20095;-61
2021/03/09 01:22:55;;;;;;;22.38;14.27;;;;;;;;;;4988336;28;20034;-61
2021/03/09 01:25:20;;;;;;;22.55;13.13;;;;;;;;;;4985207;28;20101;-61
2021/03/09 01:27:46;;;;;;;24.65;14.25;;;;;;;;;;4988836;28;20181;-61
2021/03/09 01:30:12;;;;;;;22.15;14.35;;;;;;;;;;4988630;28;20037;-60
2021/03/09 01:32:38;;;;;;;22.13;15.13;;;;;;;;;;4986884;28;20084;-61
2021/03/09 01:35:05;;;;;;;21.13;14.88;;;;;;;;;;4988807;28;20417;-61
2021/03/09 01:37:30;;;;;;;24.25;15.02;;;;;;;;;;4987710;28;20030;-61
2021/03/09 01:39:55;;;;;;;20.90;15.13;;;;;;;;;;4988691;28;20200;-61
2021/03/09 01:42:21;;;;;;;20.63;15.45;;;;;;;;;;4986387;28;20037;-61
2021/03/09 01:44:46;;;;;;;21.80;15.82;;;;;;;;;;4988904;28;20037;-61
2021/03/09 01:47:13;;;;;;;24.80;16.00;;;;;;;;;;4988649;28;20022;-60
2021/03/09 01:49:39;;;;;;;25.95;16.30;;;;;;;;;;4988723;28;20436;-61
2021/03/09 01:52:07;;;;;;;32.05;17.55;;;;;;;;;;4988430;28;20105;-60
2021/03/09 01:54:33;;;;;;;26.42;17.23;;;;;;;;;;4989397;28;20652;-61
2021/03/09 01:57:00;;;;;;;22.90;17.83;;;;;;;;;;4988424;28;20037;-61
2021/03/09 01:59:26;;;;;;;25.75;16.90;;;;;;;;;;4985892;28;20041;-61
2021/03/09 02:01:52;;;;;;;23.70;16.60;;;;;;;;;;4988437;28;20030;-64
2021/03/09 02:04:17;;;;;;;26.85;17.55;;;;;;;;;;4986698;28;20077;-64
2021/03/09 02:06:43;;;;;;;24.95;17.02;;;;;;;;;;4988408;28;20054;-64
2021/03/09 02:09:09;;;;;;;22.70;16.90;;;;;;;;;;4987863;28;20042;-62
2021/03/09 02:11:56;;;;;;;22.85;16.15;;;;;;;;;;4986967;28;20035;-62
2021/03/09 02:14:33;;;;;;;22.25;16.77;;;;;;;;;;4986172;28;20041;-63
2021/03/09 02:17:05;;;;;;;22.10;16.08;;;;;;;;;;4986969;28;20619;-63
2021/03/09 02:19:52;;;;;;;22.50;16.52;;;;;;;;;;4987823;28;20089;-64
2021/03/09 02:22:24;;;;;;;21.85;15.43;;;;;;;;;;4985773;28;20117;-64
2021/03/09 02:25:17;;;;;;;19.17;14.45;;;;;;;;;;4987428;28;20435;-64
2021/03/09 02:28:24;;;;;;;22.60;16.50;;;;;;;;;;4985432;28;20456;-64
2021/03/09 02:30:52;;;;;;;22.83;15.23;;;;;;;;;;4987454;28;20547;-64
2021/03/09 02:33:20;;;;;;;22.38;16.35;;;;;;;;;;4987238;28;20219;-64
2021/03/09 02:35:54;;;;;;;21.55;14.88;;;;;;;;;;4987774;28;20053;-63
2021/03/09 02:38:22;;;;;;;22.55;15.02;;;;;;;;;;4989507;28;20038;-63
2021/03/09 02:40:53;;;;;;;21.20;16.30;;;;;;;;;;4987939;28;20049;-62
2021/03/09 02:43:20;;;;;;;23.52;14.55;;;;;;;;;;4990063;28;20121;-63
2021/03/09 02:45:50;;;;;;;27.17;16.90;;;;;;;;;;4990618;28;20038;-64
2021/03/09 02:48:19;;;;;;;21.92;15.75;;;;;;;;;;4989728;28;20673;-64
2021/03/09 02:50:47;;;;;;;24.17;15.82;;;;;;;;;;4990180;28;20045;-64
2021/03/09 02:53:14;;;;;;;22.23;16.55;;;;;;;;;;4986385;28;20023;-63
2021/03/09 02:55:42;;;;;;;20.83;15.68;;;;;;;;;;4991023;28;20034;-64
2021/03/09 02:58:12;;;;;;;23.52;16.02;;;;;;;;;;4990049;28;20471;-64
2021/03/09 03:00:38;;;;;;;21.45;15.30;;;;;;;;;;4988767;28;20034;-64
2021/03/09 03:03:12;;;;;;;25.33;16.00;;;;;;;;;;4991223;28;20034;-63
2021/03/09 03:05:40;;;;;;;22.95;17.10;;;;;;;;;;4983685;28;20038;-61
2021/03/09 03:08:07;;;;;;;22.52;16.48;;;;;;;;;;4990315;28;20030;-61
2021/03/09 03:10:34;;;;;;;27.35;16.75;;;;;;;;;;4989940;28;20049;-61
2021/03/09 03:13:02;;;;;;;22.58;16.35;;;;;;;;;;4985897;28;20110;-61
2021/03/09 03:15:29;;;;;;;20.17;15.50;;;;;;;;;;4989971;28;20138;-61
2021/03/09 03:17:56;;;;;;;27.95;17.05;;;;;;;;;;4987912;28;20474;-60
2021/03/09 03:20:22;;;;;;;24.48;16.75;;;;;;;;;;4989968;28;20130;-61
2021/03/09 03:22:49;;;;;;;25.60;15.75;;;;;;;;;;4989648;28;20113;-61
2021/03/09 03:25:16;;;;;;;23.98;16.70;;;;;;;;;;4990062;28;20034;-61
2021/03/09 03:27:42;;;;;;;23.30;16.83;;;;;;;;;;4989714;28;20352;-61
2021/03/09 03:30:10;;;;;;;19.98;15.95;;;;;;;;;;4988727;28;20034;-61
2021/03/09 03:32:36;;;;;;;25.40;17.02;;;;;;;;;;4990398;28;20440;-60
2021/03/09 03:35:02;;;;;;;25.35;17.77;;;;;;;;;;4991420;28;20040;-61
2021/03/09 03:37:27;;;;;;;25.13;18.25;;;;;;;;;;4987927;28;20149;-61
2021/03/09 03:39:53;;;;;;;21.92;16.70;;;;;;;;;;4991018;28;20109;-61
2021/03/09 03:42:19;;;;;;;22.35;16.98;;;;;;;;;;4989618;28;20026;-60
2021/03/09 03:44:44;;;;;;;24.08;16.75;;;;;;;;;;4989531;28;20038;-60
2021/03/09 03:47:10;;;;;;;23.58;16.95;;;;;;;;;;4990505;28;20081;-60
2021/03/09 03:49:35;;;;;;;22.20;16.60;;;;;;;;;;4988987;28;20088;-60
2021/03/09 03:52:17;;;;;;;22.77;17.55;;;;;;;;;;4990353;28;20041;-60
2021/03/09 03:54:58;;;;;;;22.35;17.27;;;;;;;;;;4987249;28;20026;-60
2021/03/09 03:57:30;;;;;;;;;;;;;;;;;;4989593;28;20081;-60
2021/03/09 03:59:58;;;;;;;21.50;15.93;;;;;;;;;;4990595;28;20279;-61
2021/03/09 04:02:25;;;;;;;24.90;16.13;;;;;;;;;;4987085;28;20042;-60
2021/03/09 04:04:50;;;;;;;24.17;15.45;;;;;;;;;;4990198;28;20117;-60
2021/03/09 04:07:27;;;;;;;31.00;16.88;;;;;;;;;;4990864;28;20101;-60
2021/03/09 04:09:55;;;;;;;23.13;16.63;;;;;;;;;;4989376;28;20108;-61
2021/03/09 04:12:27;;;;;;;24.35;16.23;;;;;;;;;;4988216;28;20070;-60
2021/03/09 04:14:54;;;;;;;22.67;16.30;;;;;;;;;;4989960;28;20030;-60
2021/03/09 04:17:21;;;;;;;24.10;15.10;;;;;;;;;;4988989;28;20022;-60
2021/03/09 04:19:47;;;;;;;21.63;15.52;;;;;;;;;;4985933;28;20457;-61
2021/03/09 04:22:14;;;;;;;25.63;16.10;;;;;;;;;;4989638;28;20034;-60
2021/03/09 04:24:41;;;;;;;23.52;15.10;;;;;;;;;;4989603;28;20026;-60
2021/03/09 04:27:07;;;;;;;23.70;15.80;;;;;;;;;;4988146;28;20038;-60
2021/03/09 04:29:32;;;;;;;19.83;16.42;;;;;;;;;;4987907;28;20038;-60
2021/03/09 04:31:58;;;;;;;18.92;15.05;;;;;;;;;;4989079;28;20113;-61
2021/03/09 04:34:23;;;;;;;23.30;15.80;;;;;;;;;;4988559;28;20038;-60
2021/03/09 04:36:50;;;;;;;20.33;14.45;;;;;;;;;;4989402;28;20456;-60
2021/03/09 04:39:15;;;;;;;22.42;16.30;;;;;;;;;;4988759;28;20117;-60
2021/03/09 04:41:41;;;;;;;21.75;15.25;;;;;;;;;;4989302;28;20571;-60
2021/03/09 04:44:07;;;;;;;25.60;16.05;;;;;;;;;;4987010;28;20125;-60
2021/03/09 04:46:32;;;;;;;19.40;14.55;;;;;;;;;;4987858;28;20852;-60
2021/03/09 04:48:58;;;;;;;21.00;14.90;;;;;;;;;;4989152;28;20483;-60
2021/03/09 04:51:24;;;;;;;21.58;15.05;;;;;;;;;;4988289;28;20461;-60
2021/03/09 04:53:50;;;;;;;26.17;16.10;;;;;;;;;;4987232;28;20023;-60
2021/03/09 04:56:15;;;;;;;24.27;15.68;;;;;;;;;;4988377;28;20042;-60
2021/03/09 04:58:41;;;;;;;21.40;15.13;;;;;;;;;;4988582;28;20022;-60
2021/03/09 05:01:07;;;;;;;20.08;15.05;;;;;;;;;;4986797;28;20026;-60
2021/03/09 05:03:33;;;;;;;22.38;15.75;;;;;;;;;;4988278;28;20381;-60
2021/03/09 05:05:58;;;;;;;20.45;15.23;;;;;;;;;;4988019;28;20466;-60
2021/03/09 05:08:24;;;;;;;26.02;17.33;;;;;;;;;;4987808;28;20117;-60
2021/03/09 05:10:51;;;;;;;24.23;16.02;;;;;;;;;;4987656;28;20603;-60
2021/03/09 05:13:16;;;;;;;31.67;17.73;;;;;;;;;;4985642;28;20030;-60
2021/03/09 05:15:42;;;;;;;22.15;17.02;;;;;;;;;;4984939;28;20034;-60
2021/03/09 05:18:08;;;;;;;23.33;17.33;;;;;;;;;;4986796;28;20068;-60
2021/03/09 05:20:34;;;;;;;23.77;16.40;;;;;;;;;;4987571;28;20022;-60
2021/03/09 05:22:59;;;;;;;21.77;16.83;;;;;;;;;;4989277;28;20036;-60
2021/03/09 05:25:24;;;;;;;22.05;16.58;;;;;;;;;;4985404;28;20399;-60
2021/03/09 05:27:50;;;;;;;31.05;16.33;;;;;;;;;;4988703;28;20037;-60
2021/03/09 05:30:19;;;;;;;23.90;17.08;;;;;;;;;;4986885;28;20034;-60
2021/03/09 05:32:45;;;;;;;21.95;16.20;;;;;;;;;;4986383;28;20089;-60
2021/03/09 05:35:12;;;;;;;20.58;15.57;;;;;;;;;;4986626;28;20029;-60
2021/03/09 05:37:37;;;;;;;23.05;17.30;;;;;;;;;;4988059;28;20030;-60
2021/03/09 05:40:05;;;;;;;25.35;16.98;;;;;;;;;;4988440;28;20081;-60
2021/03/09 05:42:30;;;;;;;25.33;16.90;;;;;;;;;;4987264;28;20122;-60
2021/03/09 05:44:57;;;;;;;24.63;16.50;;;;;;;;;;4986676;28;20121;-60
2021/03/09 05:47:23;;;;;;;26.85;16.98;;;;;;;;;;4987609;28;20038;-60
2021/03/09 05:49:48;;;;;;;24.15;15.68;;;;;;;;;;4988448;28;20030;-60
2021/03/09 05:52:18;;;;;;;29.38;16.95;;;;;;;;;;4987927;28;20436;-60
2021/03/09 05:54:44;;;;;;;26.38;16.95;;;;;;;;;;4987235;28;20022;-60
2021/03/09 05:57:10;;;;;;;26.02;16.65;;;;;;;;;;4988224;28;20105;-60
2021/03/09 05:59:35;;;;;;;23.50;16.92;;;;;;;;;;4987785;28;20114;-60
2021/03/09 06:02:03;;;;;;;25.40;17.45;;;;;;;;;;4985549;28;20061;-60
2021/03/09 06:04:32;;;;;;;33.38;18.42;;;;;;;;;;4986570;28;20038;-60
2021/03/09 06:06:58;;;;;;;40.28;27.70;;;;;;;;;;4989031;28;20077;-60
2021/03/09 06:09:42;;;;;;;28.38;17.98;;;;;;;;;;4985640;28;20417;-60
2021/03/09 06:12:19;;;;;;;24.98;15.55;;;;;;;;;;4990471;28;20072;-59
2021/03/09 06:15:00;;;;;;;20.73;15.68;;;;;;;;;;4990535;28;20057;-59
2021/03/09 06:17:27;;;;;;;24.30;15.88;;;;;;;;;;4989250;28;20045;-60
2021/03/09 06:19:53;;;;;;;26.13;16.13;;;;;;;;;;4989758;28;20131;-60
2021/03/09 06:22:20;;;;;;;19.85;14.73;;;;;;;;;;4986059;28;20026;-60
2021/03/09 06:24:47;;;;;;;21.63;15.05;;;;;;;;;;4987048;28;20448;-60
2021/03/09 06:27:27;;;;;;;22.00;15.60;;;;;;;;;;4990657;28;20105;-60
2021/03/09 06:29:54;;;;;;;22.42;15.48;;;;;;;;;;4991470;28;20034;-60
2021/03/09 06:32:20;;;;;;;21.20;14.95;;;;;;;;;;4990338;28;20045;-60
2021/03/09 06:34:45;;;;;;;22.45;15.60;;;;;;;;;;4991711;28;20034;-60
2021/03/09 06:37:19;;;;;;;27.10;16.23;;;;;;;;;;4988338;28;20022;-59
2021/03/09 06:39:54;;;;;;;20.42;15.95;;;;;;;;;;4987287;28;20042;-59
2021/03/09 06:42:30;;;;;;;28.60;15.25;;;;;;;;;;4989970;28;20034;-59
2021/03/09 06:45:07;;;;;;;22.92;16.60;;;;;;;;;;4992000;28;20121;-60
2021/03/09 06:47:42;;;;;;;21.17;16.17;;;;;;;;;;4991319;28;20045;-63
2021/03/09 06:50:12;;;;;;;22.58;15.00;;;;;;;;;;4990563;28;20044;-63
2021/03/09 06:52:38;;;;;;;22.92;15.85;;;;;;;;;;4990122;28;20464;-63
2021/03/09 06:55:06;;;;;;;21.13;15.38;;;;;;;;;;4988940;28;20125;-63
2021/03/09 06:57:31;;;;;;;24.45;15.82;;;;;;;;;;4988087;28;21463;-63
2021/03/09 06:59:56;;;;;;;19.88;15.95;;;;;;;;;;4990319;28;20117;-62
2021/03/09 07:02:24;;;;;;;25.50;16.48;;;;;;;;;;4988697;28;20061;-63
2021/03/09 07:04:54;;;;;;;24.88;16.42;;;;;;;;;;4989818;28;20031;-63
2021/03/09 07:07:31;;;;;;;24.02;17.17;;;;;;;;;;4988041;28;20038;-63
2021/03/09 07:10:00;;;;;;;23.95;17.23;;;;;;;;;;4990193;28;20341;-63
2021/03/09 07:12:27;;;;;;;22.50;16.30;;;;;;;;;;4989927;28;20038;-63
2021/03/09 07:14:53;;;;;;;20.10;15.25;;;;;;;;;;4989234;28;20038;-63
2021/03/09 07:18:09;;;;;;;21.45;16.15;;;;;;;;;;4990210;28;20166;-63
2021/03/09 07:21:03;;;;;;;35.33;16.40;;;;;;;;;;4990259;28;20036;-63
2021/03/09 07:23:31;;;;;;;21.40;15.48;;;;;;;;;;4987120;28;20030;-60
2021/03/09 07:26:00;;;;;;;19.25;15.27;;;;;;;;;;4988716;28;20026;-59
2021/03/09 07:28:47;;;;;;;25.52;16.52;;;;;;;;;;4991177;28;20038;-60
2021/03/09 07:31:22;;;;;;;25.65;15.82;;;;;;;;;;4988360;28;20038;-61
2021/03/09 07:33:48;;;;;;;19.80;14.15;;;;;;;;;;4988234;28;20026;-60
2021/03/09 07:36:14;;;;;;;20.33;15.32;;;;;;;;;;4989506;28;20503;-60
2021/03/09 07:38:41;;;;;;;21.73;14.38;;;;;;;;;;4990097;28;20031;-60
2021/03/09 07:41:09;;;;;;;20.98;15.52;;;;;;;;;;4990840;28;20030;-60
2021/03/09 07:43:36;;;;;;;20.80;14.98;;;;;;;;;;4990684;28;20479;-60
2021/03/09 07:46:01;;;;;;;21.15;15.02;;;;;;;;;;4990593;28;20026;-60
2021/03/09 07:48:27;;;;;;;22.23;16.80;;;;;;;;;;4991307;28;20499;-60
2021/03/09 07:51:03;;;;;;;18.70;14.30;;;;;;;;;;4989727;28;20038;-60
2021/03/09 07:53:28;;;;;;;25.75;18.73;;;;;;;;;;4990375;28;20041;-60
2021/03/09 07:56:03;;;;;;;23.23;15.25;;;;;;;;;;4989936;28;20030;-60
2021/03/09 07:58:28;;;;;;;20.02;15.23;;;;;;;;;;4987718;28;20038;-60
2021/03/09 08:01:02;;;;;;;24.75;17.85;;;;;;;;;;4990141;28;20030;-60
2021/03/09 08:03:39;;;;;;;20.55;15.38;;;;;;;;;;4988602;28;20046;-60
2021/03/09 08:06:15;;;;;;;22.40;15.77;;;;;;;;;;4989193;28;20045;-60
2021/03/09 08:08:54;;;;;;;23.80;15.07;;;;;;;;;;4989004;28;20049;-60
2021/03/09 08:11:19;;;;;;;23.42;14.88;;;;;;;;;;4988718;28;20363;-60
2021/03/09 08:13:49;;;;;;;24.85;16.75;;;;;;;;;;4988608;28;20033;-60
2021/03/09 08:16:21;;;;;;;23.30;16.10;;;;;;;;;;4987764;28;20038;-60
2021/03/09 08:18:50;;;;;;;22.83;16.42;;;;;;;;;;4988776;28;20042;-60
2021/03/09 08:21:15;;;;;;;23.10;15.85;;;;;;;;;;4988253;28;20460;-60
2021/03/09 08:23:41;;;;;;;34.35;23.40;;;;;;;;;;4988864;28;20026;-59
2021/03/09 08:26:08;;;;;;;18.90;14.93;;;;;;;;;;4989288;28;20460;-59
2021/03/09 08:28:37;;;;;;;20.60;15.13;;;;;;;;;;4990190;28;20530;-59
2021/03/09 08:31:09;;;;;;;18.38;13.57;;;;;;;;;;4989589;28;20109;-59
2021/03/09 08:33:44;;;;;;;19.23;14.02;;;;;;;;;;4989448;28;20095;-59
2021/03/09 08:36:26;;;;;;;30.75;14.93;;;;;;;;;;4987618;28;20038;-60
2021/03/09 08:39:04;;;;;;;19.85;14.52;;;;;;;;;;4989867;28;20409;-59
2021/03/09 08:41:36;;;;;;;20.98;15.02;;;;;;;;;;4988370;28;20547;-59
2021/03/09 08:44:14;;;;;;;21.35;14.07;;;;;;;;;;4988198;28;20034;-60
2021/03/09 08:47:16;;;;;;;22.05;14.75;;;;;;;;;;4989720;28;20435;-60
2021/03/09 08:49:46;;;;;;;19.25;13.05;;;;;;;;;;4990004;28;20033;-59
2021/03/09 08:52:14;;;;;;;17.08;13.45;;;;;;;;;;4988754;28;20456;-59
2021/03/09 08:54:43;;;;;;;14.70;12.13;;;;;;;;;;4989779;28;20052;-59
2021/03/09 08:57:20;;;;;;;15.48;12.43;;;;;;;;;;4972301;28;20038;-60
2021/03/09 08:59:53;;;;;;;18.63;13.30;;;;;;;;;;4984559;28;20169;-61
2021/03/09 09:02:20;;;;;;;16.85;13.05;;;;;;;;;;4986402;28;20034;-60
2021/03/09 09:04:56;;;;;;;17.75;13.27;;;;;;;;;;4989683;28;20034;-61
2021/03/09 09:07:39;;;;;;;25.27;14.48;;;;;;;;;;4985997;28;20050;-61
2021/03/09 09:10:07;;;;;;;20.10;13.07;;;;;;;;;;4988968;28;20030;-59
2021/03/09 09:12:35;;;;;;;19.58;13.55;;;;;;;;;;4987558;28;21681;-59
2021/03/09 09:15:04;;;;;;;15.93;13.50;;;;;;;;;;4987264;28;20038;-60
2021/03/09 09:17:30;;;;;;;18.05;13.45;;;;;;;;;;4985058;28;20049;-60
2021/03/09 09:19:58;;;;;;;20.77;13.55;;;;;;;;;;4989135;28;20079;-60
2021/03/09 09:22:27;;;;;;;17.95;14.13;;;;;;;;;;4988746;28;20065;-60
2021/03/09 09:24:57;;;;;;;20.67;14.30;;;;;;;;;;4988660;28;20027;-60
2021/03/09 09:27:22;;;;;;;21.77;13.93;;;;;;;;;;4987648;28;20045;-60
2021/03/09 09:29:56;;;;;;;18.45;13.85;;;;;;;;;;4988142;28;20038;-60
2021/03/09 09:32:22;;;;;;;18.15;13.00;;;;;;;;;;4986718;28;20027;-60
2021/03/09 09:34:57;;;;;;;19.40;13.95;;;;;;;;;;4986024;28;20054;-61
2021/03/09 09:37:23;;;;;;;19.05;14.93;;;;;;;;;;4987389;28;20034;-60
2021/03/09 09:39:48;;;;;;;17.13;13.65;;;;;;;;;;4988591;28;20041;-60
2021/03/09 09:42:16;;;;;;;18.70;15.13;;;;;;;;;;4989232;28;20018;-61
2021/03/09 09:44:41;;;;;;;21.42;13.57;;;;;;;;;;4986154;28;20042;-61
2021/03/09 09:47:08;;;;;;;20.15;14.07;;;;;;;;;;4990408;28;20056;-61
2021/03/09 09:49:35;;;;;;;18.42;14.38;;;;;;;;;;4992229;28;20026;-61
2021/03/09 09:52:01;;;;;;;19.77;14.70;;;;;;;;;;4992251;28;20038;-61
2021/03/09 09:54:26;;;;;;;18.60;14.60;;;;;;;;;;4990084;28;20097;-61
2021/03/09 09:56:52;;;;;;;16.02;14.20;;;;;;;;;;4992120;28;20404;-61
2021/03/09 09:59:27;;;;;;;18.10;14.02;;;;;;;;;;4991510;28;20490;-61
2021/03/09 10:01:53;;;;;;;19.85;14.27;;;;;;;;;;4990202;28;20041;-61
2021/03/09 10:04:18;;;;;;;22.33;16.30;;;;;;;;;;4991236;28;20034;-61
2021/03/09 10:06:49;;;;;;;17.42;13.98;;;;;;;;;;4992319;28;20041;-60
2021/03/09 10:09:22;;;;;;;19.83;12.68;;;;;;;;;;4989022;28;20030;-60
2021/03/09 10:11:50;;;;;;;20.00;15.30;;;;;;;;;;4989800;28;20041;-60
2021/03/09 10:14:17;;;;;;;22.52;16.50;;;;;;;;;;4993251;28;20059;-60
2021/03/09 10:16:43;;;;;;;19.63;14.30;;;;;;;;;;4992114;28;20460;-60
2021/03/09 10:19:10;;;;;;;22.67;14.43;;;;;;;;;;4993180;28;20324;-60
2021/03/09 10:21:37;;;;;;;14.65;12.10;;;;;;;;;;4990069;28;20026;-60
2021/03/09 10:24:05;;;;;;;16.90;13.20;;;;;;;;;;4992069;28;20034;-60
2021/03/09 10:26:38;;;;;;;22.65;13.88;;;;;;;;;;4990636;28;20030;-60
2021/03/09 10:29:14;;;;;;;19.20;14.73;;;;;;;;;;4990357;28;20034;-60
2021/03/09 10:31:53;;;;;;;20.35;14.65;;;;;;;;;;4991051;28;20041;-60
2021/03/09 10:34:40;;;;;;;20.77;13.73;;;;;;;;;;4990795;28;20034;-60
2021/03/09 10:37:06;;;;;;;17.88;13.75;;;;;;;;;;4990808;28;20066;-61
2021/03/09 10:39:34;;;;;;;19.58;14.73;;;;;;;;;;4991608;28;20034;-60
2021/03/09 10:42:28;;;;;;;19.23;13.27;;;;;;;;;;4992427;28;20037;-60
2021/03/09 10:44:54;;;;;;;17.15;13.07;;;;;;;;;;4991146;28;20058;-61
2021/03/09 10:47:20;;;;;;;18.02;12.80;;;;;;;;;;4992385;28;20042;-60
2021/03/09 10:49:46;;;;;;;18.77;12.70;;;;;;;;;;4992827;28;20126;-60
2021/03/09 10:52:11;;;;;;;19.40;12.20;;;;;;;;;;4992524;28;20355;-61
2021/03/09 10:54:38;;;;;;;19.30;12.35;;;;;;;;;;4987050;28;20030;-60
2021/03/09 10:57:05;;;;;;;18.85;12.55;;;;;;;;;;4991546;28;20105;-61
2021/03/09 10:59:30;;;;;;;20.17;15.63;;;;;;;;;;4991840;28;20035;-61
2021/03/09 11:01:56;;;;;;;15.30;12.07;;;;;;;;;;4989504;28;20686;-61
2021/03/09 11:04:21;;;;;;;20.70;15.20;;;;;;;;;;4990186;28;20364;-61
2021/03/09 11:06:47;;;;;;;20.60;13.23;;;;;;;;;;4991375;28;20088;-60
2021/03/09 11:09:12;;;;;;;14.60;10.65;;;;;;;;;;4989688;28;20118;-62
2021/03/09 11:11:38;;;;;;;18.08;12.88;;;;;;;;;;4991149;28;20459;-60
2021/03/09 11:14:03;;;;;;;13.43;9.25;;;;;;;;;;4992550;28;20448;-61
2021/03/09 11:16:30;;;;;;;19.02;9.40;;;;;;;;;;4990605;28;20476;-61
2021/03/09 11:19:00;;;;;;;10.80;4.88;;;;;;;;;;4989290;28;20030;-61
2021/03/09 11:21:28;;;;;;;10.48;5.72;;;;;;;;;;4990257;28;20440;-61
2021/03/09 11:23:54;;;;;;;17.52;9.63;;;;;;;;;;4991196;28;20542;-61
2021/03/09 11:26:21;;;;;;;17.58;10.10;;;;;;;;;;4989647;28;20480;-61
2021/03/09 11:28:47;;;;;;;19.30;11.63;;;;;;;;;;4990538;28;20034;-61
2021/03/09 11:31:14;;;;;;;16.73;12.65;;;;;;;;;;4987956;28;20036;-60
2021/03/09 11:33:40;;;;;;;18.30;13.43;;;;;;;;;;4990786;28;20030;-61
2021/03/09 11:36:05;;;;;;;18.85;13.13;;;;;;;;;;4989688;28;20038;-61
2021/03/09 11:38:31;;;;;;;16.70;12.77;;;;;;;;;;4989464;28;20045;-61
2021/03/09 11:40:56;;;;;;;17.65;13.05;;;;;;;;;;4991562;28;20030;-61
2021/03/09 11:43:22;;;;;;;17.85;12.68;;;;;;;;;;4989318;28;20073;-60
2021/03/09 11:45:48;;;;;;;14.25;10.77;;;;;;;;;;4989975;28;20065;-60
2021/03/09 11:48:13;;;;;;;19.30;11.02;;;;;;;;;;4989579;28;20045;-60
2021/03/09 11:50:38;;;;;;;12.55;9.57;;;;;;;;;;4989855;28;20030;-60
2021/03/09 11:53:04;;;;;;;13.15;8.93;;;;;;;;;;4989745;28;20337;-61
2021/03/09 11:55:29;;;;;;;10.65;8.38;;;;;;;;;;4990422;28;20038;-61
2021/03/09 11:57:55;;;;;;;13.32;9.05;;;;;;;;;;4989393;28;20053;-61
2021/03/09 12:00:21;;;;;;;16.08;10.00;;;;;;;;;;4987767;28;20031;-61
2021/03/09 12:02:48;;;;;;;15.50;10.15;;;;;;;;;;4990962;28;20027;-61
2021/03/09 12:05:14;;;;;;;16.65;10.85;;;;;;;;;;4986905;28;20095;-61
2021/03/09 12:07:39;;;;;;;16.77;10.07;;;;;;;;;;4986418;28;20076;-61
2021/03/09 12:10:06;;;;;;;18.42;9.65;;;;;;;;;;4986098;28;20456;-60
2021/03/09 12:12:31;;;;;;;16.58;10.35;;;;;;;;;;4987278;28;20038;-60
2021/03/09 12:14:57;;;;;;;15.10;10.20;;;;;;;;;;4986644;28;20427;-60
2021/03/09 12:17:22;;;;;;;13.35;9.48;;;;;;;;;;4985787;28;20073;-60
2021/03/09 12:19:48;;;;;;;10.90;7.32;;;;;;;;;;4988175;28;20037;-61
2021/03/09 12:22:13;;;;;;;11.80;7.07;;;;;;;;;;4983236;28;20050;-61
2021/03/09 12:24:39;;;;;;;9.13;6.60;;;;;;;;;;4982673;28;20034;-61
2021/03/09 12:27:04;;;;;;;9.93;7.10;;;;;;;;;;4988383;28;20501;-59
2021/03/09 12:29:30;;;;;;;12.50;7.40;;;;;;;;;;4987998;28;20046;-60
2021/03/09 12:31:55;;;;;;;10.15;6.43;;;;;;;;;;4988321;28;20165;-60
2021/03/09 12:34:20;;;;;;;9.70;6.43;;;;;;;;;;4985811;28;20039;-60
2021/03/09 12:36:46;;;;;;;8.13;5.97;;;;;;;;;;4987734;28;20445;-60
2021/03/09 12:39:11;;;;;;;6.72;5.15;;;;;;;;;;4986086;28;20436;-60
2021/03/09 12:41:37;;;;;;;12.68;5.43;;;;;;;;;;4986293;28;20064;-60
2021/03/09 12:44:02;;;;;;;7.57;5.85;;;;;;;;;;4990383;28;20038;-61
2021/03/09 12:46:28;;;;;;;7.60;5.82;;;;;;;;;;4985571;28;20125;-60
2021/03/09 12:48:53;;;;;;;6.05;4.70;;;;;;;;;;4990002;28;20472;-60
2021/03/09 12:51:19;;;;;;;6.32;4.80;;;;;;;;;;4988718;28;20034;-61
2021/03/09 12:53:44;;;;;;;7.22;5.10;;;;;;;;;;4989269;28;20030;-60
2021/03/09 12:56:09;;;;;;;12.60;5.50;;;;;;;;;;4989741;28;20034;-60
2021/03/09 12:58:37;;;;;;;9.00;5.20;;;;;;;;;;4989094;28;20041;-60
2021/03/09 13:01:02;;;;;;;7.75;5.80;;;;;;;;;;4987049;28;20057;-60
2021/03/09 13:03:28;;;;;;;8.52;6.43;;;;;;;;;;4991060;28;20038;-60
2021/03/09 13:05:53;;;;;;;11.40;6.07;;;;;;;;;;4989951;28;20105;-61
2021/03/09 13:08:19;;;;;;;12.15;6.88;;;;;;;;;;4984590;28;20371;-61
2021/03/09 13:10:44;;;;;;;10.90;6.85;;;;;;;;;;4983642;28;20121;-61
2021/03/09 13:13:10;;;;;;;10.52;7.38;;;;;;;;;;4984154;28;20034;-61
2021/03/09 13:15:35;;;;;;;14.02;7.47;;;;;;;;;;4986012;28;20038;-61
2021/03/09 13:18:00;;;;;;;13.43;7.10;;;;;;;;;;4983984;28;20618;-61
2021/03/09 13:20:26;;;;;;;9.38;7.18;;;;;;;;;;4983495;28;20034;-61
2021/03/09 13:22:52;;;;;;;13.18;7.35;;;;;;;;;;4988332;28;20370;-61
2021/03/09 13:25:17;;;;;;;11.52;7.38;;;;;;;;;;4983546;28;20049;-61
2021/03/09 13:27:43;;;;;;;12.60;7.10;;;;;;;;;;4988826;28;20030;-61
2021/03/09 13:30:14;;;;;;;13.23;8.07;;;;;;;;;;4988564;28;20117;-61
2021/03/09 13:32:40;;;;;;;;;;;;;;;;;;4985780;28;20479;-61
2021/03/09 13:35:07;;;;;;;12.63;6.80;;;;;;;;;;4987126;28;19917;-62
2021/03/09 13:37:32;;;;;;;11.20;7.50;;;;;;;;;;4987550;28;20412;-62
2021/03/09 13:39:57;;;;;;;14.13;7.47;;;;;;;;;;4988293;28;20102;-61
2021/03/09 13:42:23;;;;;;;9.30;6.90;;;;;;;;;;4985370;28;20038;-61
2021/03/09 13:44:48;;;;;;;13.50;8.00;;;;;;;;;;4987273;28;20031;-61
2021/03/09 13:47:14;;;;;;;10.95;7.45;;;;;;;;;;4989200;28;20150;-61
2021/03/09 13:49:39;;;;;;;10.35;7.10;;;;;;;;;;4988350;28;20041;-61
2021/03/09 13:52:05;;;;;;;11.07;7.72;;;;;;;;;;4988645;28;20030;-60
2021/03/09 13:54:30;;;;;;;9.82;7.15;;;;;;;;;;4987812;28;20042;-62
2021/03/09 13:56:55;;;;;;;11.55;7.38;;;;;;;;;;4989556;28;20025;-62
2021/03/09 13:59:21;;;;;;;10.25;7.07;;;;;;;;;;4987943;28;20092;-64
2021/03/09 14:01:46;;;;;;;15.10;7.72;;;;;;;;;;4986819;28;20042;-63
2021/03/09 14:04:11;;;;;;;12.35;8.63;;;;;;;;;;4988868;28;20475;-64
2021/03/09 14:06:37;;;;;;;11.00;8.15;;;;;;;;;;4986785;28;20041;-64
2021/03/09 14:09:03;;;;;;;10.68;7.78;;;;;;;;;;4988265;28;20113;-64
2021/03/09 14:11:29;;;;;;;9.18;7.68;;;;;;;;;;4989555;28;20472;-63
2021/03/09 14:13:54;;;;;;;12.75;8.38;;;;;;;;;;4989703;28;20061;-62
2021/03/09 14:16:19;;;;;;;11.13;7.38;;;;;;;;;;4987194;28;20053;-63
2021/03/09 14:18:45;;;;;;;10.82;8.07;;;;;;;;;;4987309;28;20092;-63
2021/03/09 14:21:11;;;;;;;8.48;6.80;;;;;;;;;;4988839;28;20045;-62
2021/03/09 14:23:37;;;;;;;12.52;7.03;;;;;;;;;;4985540;28;20092;-62
2021/03/09 14:26:03;;;;;;;9.82;6.50;;;;;;;;;;4988938;28;20507;-62